Time,TemperatureF,DewpointF,PressureIn,WindDirection,WindDirectionDegrees,WindSpeedMPH,WindSpeedGustMPH,Humidity,HourlyPrecipIn,Conditions,Clouds,dailyrainin,SoftwareType,DateUTC
2013-07-01 00:14:00,70.0,60.0,29.89,NNW,331,0.0,0.0,70,0.00,,,0.00,weatherlink.com 1.10,2013-07-01 05:14:00,
2013-07-01 00:29:00,69.4,59.0,29.89,NNW,331,0.0,0.0,70,0.00,,,0.00,weatherlink.com 1.10,2013-07-01 05:29:00,
2013-07-01 00:44:00,69.0,59.0,29.89,NNW,331,0.0,0.0,71,0.00,,,0.00,weatherlink.com 1.10,2013-07-01 05:44:00,
2013-07-01 00:59:00,68.7,59.0,29.89,NNW,331,0.0,0.0,71,0.00,,,0.00,weatherlink.com 1.10,2013-07-01 05:59:00,
2013-07-01 01:14:00,68.4,59.0,29.89,NNW,331,0.0,0.0,73,0.00,,,0.00,weatherlink.com 1.10,2013-07-01 06:14:00,
2013-07-01 01:29:00,68.0,59.0,29.89,NNW,331,0.0,0.0,74,0.00,,,0.00,weatherlink.com 1.10,2013-07-01 06:29:00,
2013-07-01 01:44:00,67.8,59.0,29.89,NNW,331,0.0,0.0,74,0.00,,,0.00,weatherlink.com 1.10,2013-07-01 06:44:00,
2013-07-01 01:59:00,67.3,59.0,29.89,NNW,331,0.0,0.0,74,0.00,,,0.00,weatherlink.com 1.10,2013-07-01 06:59:00,
2013-07-01 02:14:00,66.9,59.0,29.89,NNW,331,0.0,0.0,75,0.00,,,0.00,weatherlink.com 1.10,2013-07-01 07:14:00,
2013-07-01 02:29:00,66.6,59.0,29.89,NNW,331,0.0,0.0,77,0.00,,,0.00,weatherlink.com 1.10,2013-07-01 07:29:00,
2013-07-01 02:44:00,66.2,59.0,29.89,NNW,331,0.0,0.0,77,0.00,,,0.00,weatherlink.com 1.10,2013-07-01 07:44:00,
2013-07-01 02:59:00,65.9,59.0,29.89,NNW,331,0.0,0.0,78,0.00,,,0.00,weatherlink.com 1.10,2013-07-01 07:59:00,
2013-07-01 03:14:00,65.1,59.0,29.89,NNW,331,0.0,0.0,80,0.00,,,0.00,weatherlink.com 1.10,2013-07-01 08:14:00,
2013-07-01 03:29:00,64.4,59.0,29.90,NNW,331,0.0,0.0,82,0.00,,,0.00,weatherlink.com 1.10,2013-07-01 08:29:00,
2013-07-01 03:44:00,64.0,58.0,29.90,NNW,331,0.0,0.0,82,0.00,,,0.00,weatherlink.com 1.10,2013-07-01 08:44:00,
2013-07-01 03:59:00,63.9,59.0,29.90,NNW,331,0.0,0.0,83,0.00,,,0.00,weatherlink.com 1.10,2013-07-01 08:59:00,
2013-07-01 04:14:00,63.6,59.0,29.91,NNW,331,0.0,0.0,84,0.00,,,0.00,weatherlink.com 1.10,2013-07-01 09:14:00,
2013-07-01 04:29:00,63.5,59.0,29.91,NNW,331,0.0,0.0,84,0.00,,,0.00,weatherlink.com 1.10,2013-07-01 09:29:00,
2013-07-01 04:44:00,63.5,59.0,29.91,NNW,331,0.0,0.0,84,0.00,,,0.00,weatherlink.com 1.10,2013-07-01 09:44:00,
2013-07-01 04:59:00,63.6,59.0,29.92,NNW,331,0.0,0.0,84,0.00,,,0.00,weatherlink.com 1.10,2013-07-01 09:59:00,
2013-07-01 05:14:00,63.7,59.0,29.92,NNW,331,0.0,0.0,85,0.00,,,0.00,weatherlink.com 1.10,2013-07-01 10:14:00,
2013-07-01 05:29:00,63.6,59.0,29.92,NNW,331,0.0,0.0,85,0.00,,,0.00,weatherlink.com 1.10,2013-07-01 10:29:00,
2013-07-01 05:44:00,63.7,59.0,29.93,NNW,331,0.0,0.0,85,0.00,,,0.00,weatherlink.com 1.10,2013-07-01 10:44:00,
2013-07-01 05:59:00,63.6,59.0,29.93,NNW,331,0.0,0.0,85,0.00,,,0.00,weatherlink.com 1.10,2013-07-01 10:59:00,
2013-07-01 06:14:00,63.5,59.0,29.93,NNW,331,0.0,0.0,85,0.00,,,0.00,weatherlink.com 1.10,2013-07-01 11:14:00,
2013-07-01 06:29:00,63.6,59.0,29.93,NNW,331,0.0,0.0,85,0.00,,,0.00,weatherlink.com 1.10,2013-07-01 11:29:00,
2013-07-01 06:45:00,63.7,60.0,29.93,NNW,331,0.0,0.0,86,0.00,,,0.00,weatherlink.com 1.10,2013-07-01 11:45:00,
2013-07-01 07:00:00,64.0,60.0,29.94,NNW,331,0.0,0.0,86,0.00,,,0.00,weatherlink.com 1.10,2013-07-01 12:00:00,
2013-07-01 07:15:00,64.2,60.0,29.95,NNW,331,0.0,0.0,85,0.00,,,0.00,weatherlink.com 1.10,2013-07-01 12:15:00,
2013-07-01 07:30:00,64.6,60.0,29.95,NNW,331,0.0,0.0,85,0.00,,,0.00,weatherlink.com 1.10,2013-07-01 12:30:00,
2013-07-01 07:45:00,65.3,61.0,29.96,NNW,331,0.0,0.0,86,0.00,,,0.00,weatherlink.com 1.10,2013-07-01 12:45:00,
2013-07-01 08:00:00,66.2,62.0,29.96,NNW,331,0.0,0.0,85,0.00,,,0.00,weatherlink.com 1.10,2013-07-01 13:00:00,
2013-07-01 08:15:00,67.3,62.0,29.96,NNW,331,0.0,2.0,84,0.00,,,0.00,weatherlink.com 1.10,2013-07-01 13:15:00,
2013-07-01 08:30:00,68.9,63.0,29.97,NNW,331,1.0,3.0,82,0.00,,,0.00,weatherlink.com 1.10,2013-07-01 13:30:00,
2013-07-01 08:45:00,70.8,64.0,29.97,NNW,331,1.0,4.0,78,0.00,,,0.00,weatherlink.com 1.10,2013-07-01 13:45:00,
2013-07-01 09:00:00,72.3,64.0,29.97,NNW,331,0.0,3.0,75,0.00,,,0.00,weatherlink.com 1.10,2013-07-01 14:00:00,
2013-07-01 09:15:00,73.7,64.0,29.97,NW,325,0.0,3.0,72,0.00,,,0.00,weatherlink.com 1.10,2013-07-01 14:15:00,
2013-07-01 09:30:00,75.8,64.0,29.97,NW,323,0.0,5.0,66,0.00,,,0.00,weatherlink.com 1.10,2013-07-01 14:30:00,
2013-07-01 09:45:00,76.5,66.0,29.97,NW,323,0.0,1.0,69,0.00,,,0.00,weatherlink.com 1.10,2013-07-01 14:45:00,
2013-07-01 10:00:00,76.0,64.0,29.97,NW,323,0.0,4.0,67,0.00,,,0.00,weatherlink.com 1.10,2013-07-01 15:00:00,
2013-07-01 10:15:00,76.3,65.0,29.97,NW,323,0.0,2.0,68,0.00,,,0.00,weatherlink.com 1.10,2013-07-01 15:15:00,
2013-07-01 10:45:00,79.3,65.0,29.97,NW,321,0.0,4.0,61,0.00,,,0.00,weatherlink.com 1.10,2013-07-01 15:45:00,
2013-07-01 11:00:00,81.2,65.0,29.97,NW,315,2.0,5.0,58,0.00,,,0.00,weatherlink.com 1.10,2013-07-01 16:00:00,
2013-07-01 11:15:00,82.1,63.0,29.97,NNW,334,0.0,2.0,53,0.00,,,0.00,weatherlink.com 1.10,2013-07-01 16:15:00,
2013-07-01 11:30:00,82.3,64.0,29.98,NNW,329,1.0,4.0,54,0.00,,,0.00,weatherlink.com 1.10,2013-07-01 16:30:00,
2013-07-01 11:45:00,84.7,66.0,29.97,WNW,285,0.0,4.0,53,0.00,,,0.00,weatherlink.com 1.10,2013-07-01 16:45:00,
2013-07-01 12:00:00,84.1,64.0,29.97,NNW,336,2.0,4.0,51,0.00,,,0.00,weatherlink.com 1.10,2013-07-01 17:00:00,
2013-07-01 12:15:00,83.7,64.0,29.97,NW,318,3.0,4.0,52,0.00,,,0.00,weatherlink.com 1.10,2013-07-01 17:15:00,
2013-07-01 12:30:00,82.9,62.0,29.96,NW,320,1.0,4.0,50,0.00,,,0.00,weatherlink.com 1.10,2013-07-01 17:30:00,
2013-07-01 12:45:00,84.7,62.0,29.96,NNW,329,3.0,5.0,46,0.00,,,0.00,weatherlink.com 1.10,2013-07-01 17:45:00,
2013-07-01 13:00:00,84.5,63.0,29.96,NW,325,1.0,3.0,49,0.00,,,0.00,weatherlink.com 1.10,2013-07-01 18:00:00,
2013-07-01 13:15:00,85.4,64.0,29.95,NW,325,0.0,2.0,49,0.00,,,0.00,weatherlink.com 1.10,2013-07-01 18:15:00,
2013-07-01 13:30:00,86.4,63.0,29.95,West,259,1.0,5.0,46,0.00,,,0.00,weatherlink.com 1.10,2013-07-01 18:30:00,
2013-07-01 13:45:00,87.4,65.0,29.95,NW,323,5.0,5.0,47,0.00,,,0.00,weatherlink.com 1.10,2013-07-01 18:45:00,
2013-07-01 14:00:00,85.0,64.0,29.94,NNE,19,1.0,5.0,49,0.00,,,0.00,weatherlink.com 1.10,2013-07-01 19:00:00,
2013-07-01 14:15:00,86.8,62.0,29.94,NW,321,3.0,6.0,44,0.00,,,0.00,weatherlink.com 1.10,2013-07-01 19:15:00,
2013-07-01 14:30:00,85.6,63.0,29.94,NNW,331,2.0,5.0,47,0.00,,,0.00,weatherlink.com 1.10,2013-07-01 19:30:00,
2013-07-01 14:45:00,87.5,64.0,29.93,WNW,301,1.0,4.0,45,0.00,,,0.00,weatherlink.com 1.10,2013-07-01 19:45:00,
2013-07-01 15:00:00,87.7,64.0,29.93,WSW,244,0.0,2.0,45,0.00,,,0.00,weatherlink.com 1.10,2013-07-01 20:00:00,
2013-07-01 15:16:00,85.7,64.0,29.93,NNW,337,2.0,5.0,48,0.00,,,0.00,weatherlink.com 1.10,2013-07-01 20:16:00,
2013-07-01 15:46:00,87.4,63.0,29.92,NNW,334,2.0,4.0,44,0.00,,,0.00,weatherlink.com 1.10,2013-07-01 20:46:00,
2013-07-01 16:01:00,87.0,63.0,29.92,NNW,341,1.0,5.0,44,0.00,,,0.00,weatherlink.com 1.10,2013-07-01 21:01:00,
2013-07-01 16:16:00,88.0,63.0,29.91,South,187,1.0,6.0,43,0.00,,,0.00,weatherlink.com 1.10,2013-07-01 21:16:00,
2013-07-01 16:31:00,87.6,60.0,29.91,NNW,340,5.0,6.0,39,0.00,,,0.00,weatherlink.com 1.10,2013-07-01 21:31:00,
2013-07-01 16:46:00,86.3,63.0,29.91,NNW,336,0.0,3.0,46,0.00,,,0.00,weatherlink.com 1.10,2013-07-01 21:46:00,
2013-07-01 17:01:00,87.4,63.0,29.91,NNW,336,0.0,1.0,44,0.00,,,0.00,weatherlink.com 1.10,2013-07-01 22:01:00,
2013-07-01 17:16:00,86.2,59.0,29.91,NNW,332,0.0,5.0,40,0.00,,,0.00,weatherlink.com 1.10,2013-07-01 22:16:00,
2013-07-01 17:31:00,84.6,60.0,29.91,NNW,341,1.0,5.0,43,0.00,,,0.00,weatherlink.com 1.10,2013-07-01 22:31:00,
2013-07-01 17:46:00,84.1,63.0,29.91,NNW,336,0.0,2.0,50,0.00,,,0.00,weatherlink.com 1.10,2013-07-01 22:46:00,
2013-07-01 18:01:00,84.3,65.0,29.91,NNW,332,0.0,5.0,52,0.00,,,0.00,weatherlink.com 1.10,2013-07-01 23:01:00,
2013-07-01 18:16:00,83.7,64.0,29.91,NNW,327,0.0,7.0,51,0.00,,,0.00,weatherlink.com 1.10,2013-07-01 23:16:00,
2013-07-01 18:31:00,83.5,66.0,29.91,NNW,327,0.0,2.0,55,0.00,,,0.00,weatherlink.com 1.10,2013-07-01 23:31:00,
2013-07-01 18:46:00,82.4,64.0,29.91,NNW,327,0.0,1.0,54,0.00,,,0.00,weatherlink.com 1.10,2013-07-01 23:46:00,
2013-07-01 19:01:00,81.4,64.0,29.91,NNW,329,0.0,3.0,55,0.00,,,0.00,weatherlink.com 1.10,2013-07-02 00:01:00,
2013-07-01 19:16:00,81.0,64.0,29.92,NNW,329,0.0,0.0,57,0.00,,,0.00,weatherlink.com 1.10,2013-07-02 00:16:00,
2013-07-01 19:31:00,80.3,66.0,29.93,NNW,329,0.0,0.0,61,0.00,,,0.00,weatherlink.com 1.10,2013-07-02 00:31:00,
2013-07-01 19:46:00,79.4,65.0,29.93,NNW,329,0.0,0.0,62,0.00,,,0.00,weatherlink.com 1.10,2013-07-02 00:46:00,
2013-07-01 20:01:00,78.6,64.0,29.93,NNW,329,0.0,0.0,62,0.00,,,0.00,weatherlink.com 1.10,2013-07-02 01:01:00,
2013-07-01 20:16:00,77.9,64.0,29.93,NNW,329,0.0,0.0,62,0.00,,,0.00,weatherlink.com 1.10,2013-07-02 01:16:00,
2013-07-01 20:31:00,77.1,63.0,29.94,NNW,329,0.0,0.0,62,0.00,,,0.00,weatherlink.com 1.10,2013-07-02 01:31:00,
2013-07-01 20:46:00,76.1,62.0,29.94,NNW,329,0.0,0.0,62,0.00,,,0.00,weatherlink.com 1.10,2013-07-02 01:46:00,
2013-07-01 21:01:00,75.1,63.0,29.94,NNW,329,0.0,0.0,66,0.00,,,0.00,weatherlink.com 1.10,2013-07-02 02:01:00,
2013-07-01 21:16:00,73.8,62.0,29.95,NNW,329,0.0,0.0,67,0.00,,,0.00,weatherlink.com 1.10,2013-07-02 02:16:00,
2013-07-01 21:31:00,72.9,62.0,29.95,NNW,329,0.0,0.0,69,0.00,,,0.00,weatherlink.com 1.10,2013-07-02 02:31:00,
2013-07-01 21:46:00,72.2,63.0,29.95,NNW,329,0.0,0.0,73,0.00,,,0.00,weatherlink.com 1.10,2013-07-02 02:46:00,
2013-07-01 22:01:00,71.5,63.0,29.96,NNW,329,0.0,0.0,74,0.00,,,0.00,weatherlink.com 1.10,2013-07-02 03:01:00,
2013-07-01 22:16:00,71.0,63.0,29.96,NNW,329,0.0,0.0,76,0.00,,,0.00,weatherlink.com 1.10,2013-07-02 03:16:00,
2013-07-01 22:31:00,70.5,63.0,29.96,NNW,329,0.0,0.0,77,0.00,,,0.00,weatherlink.com 1.10,2013-07-02 03:31:00,
2013-07-01 22:46:00,70.1,63.0,29.97,NNW,329,0.0,0.0,78,0.00,,,0.00,weatherlink.com 1.10,2013-07-02 03:46:00,
2013-07-01 23:01:00,69.8,63.0,29.97,NNW,329,0.0,0.0,78,0.00,,,0.00,weatherlink.com 1.10,2013-07-02 04:01:00,
2013-07-01 23:16:00,69.5,63.0,29.98,NNW,329,0.0,0.0,79,0.00,,,0.00,weatherlink.com 1.10,2013-07-02 04:16:00,
2013-07-01 23:31:00,69.1,62.0,29.98,NNW,329,0.0,0.0,78,0.00,,,0.00,weatherlink.com 1.10,2013-07-02 04:31:00,
2013-07-01 23:46:00,68.8,62.0,29.98,NNW,329,0.0,0.0,79,0.00,,,0.00,weatherlink.com 1.10,2013-07-02 04:46:00,